createdAt,value
2023-05-30T00:01:14.619Z,11.40
2023-05-30T00:06:07.056Z,11.36
2023-05-30T00:10:57.097Z,11.30
2023-05-30T00:15:48.569Z,11.24
2023-05-30T00:20:38.212Z,11.19
2023-05-30T00:25:30.557Z,11.16
2023-05-30T00:30:20.269Z,11.06
2023-05-30T00:35:11.035Z,11.03
2023-05-30T00:40:00.943Z,10.98
2023-05-30T00:44:53.662Z,10.95
2023-05-30T00:49:43.436Z,10.98
2023-05-30T00:54:33.260Z,11.00
2023-05-30T00:59:23.270Z,10.97
2023-05-30T01:04:15.552Z,10.90
2023-05-30T01:09:05.955Z,10.85
2023-05-30T01:14:02.122Z,10.89
2023-05-30T01:18:56.394Z,10.92
2023-05-30T01:23:56.482Z,10.90
2023-05-30T01:28:50.934Z,10.90
2023-05-30T01:33:41.273Z,10.90
2023-05-30T01:38:30.954Z,10.89
2023-05-30T01:43:27.722Z,10.86
2023-05-30T01:48:22.848Z,10.81
2023-05-30T01:53:14.311Z,10.69
2023-05-30T01:58:05.437Z,10.66
2023-05-30T02:02:56.658Z,10.61
2023-05-30T02:07:49.019Z,10.58
2023-05-30T02:12:38.708Z,10.53
2023-05-30T02:17:28.408Z,10.48
2023-05-30T02:22:18.499Z,10.40
2023-05-30T02:27:11.052Z,10.36
2023-05-30T02:32:02.300Z,10.33
2023-05-30T02:36:52.310Z,10.30
2023-05-30T02:41:41.919Z,10.29
2023-05-30T02:46:34.736Z,10.25
2023-05-30T02:51:24.950Z,10.24
2023-05-30T02:56:15.258Z,10.21
2023-05-30T03:01:13.803Z,10.24
2023-05-30T03:06:06.562Z,10.22
2023-05-30T03:11:07.378Z,10.20
2023-05-30T03:15:57.231Z,10.15
2023-05-30T03:20:47.006Z,10.15
2023-05-30T03:25:39.477Z,10.16
2023-05-30T03:30:30.352Z,10.19
2023-05-30T03:35:24.409Z,10.23
2023-05-30T03:40:14.951Z,10.24
2023-05-30T03:45:09.870Z,10.24
2023-05-30T03:50:01.577Z,10.26
2023-05-30T03:54:51.526Z,10.33
2023-05-30T03:59:41.206Z,10.41
2023-05-30T04:04:33.814Z,10.50
2023-05-30T04:09:23.488Z,10.51
2023-05-30T04:14:13.706Z,10.50
2023-05-30T04:19:03.347Z,10.48
2023-05-30T04:23:57.021Z,10.53
2023-05-30T04:28:49.723Z,10.56
2023-05-30T04:33:40.825Z,10.59
2023-05-30T04:38:33.669Z,10.60
2023-05-30T04:43:30.192Z,10.66
2023-05-30T04:48:19.794Z,10.74
2023-05-30T04:53:09.533Z,10.80
2023-05-30T04:57:59.624Z,10.79
2023-05-30T05:02:55.997Z,10.69
2023-05-30T05:07:46.097Z,10.76
2023-05-30T05:12:35.975Z,10.86
2023-05-30T05:17:25.901Z,10.89
2023-05-30T05:22:20.817Z,10.96
2023-05-30T05:27:14.909Z,11.01
2023-05-30T05:32:04.853Z,11.41
2023-05-30T05:36:54.851Z,11.47
2023-05-30T05:41:47.680Z,11.58
2023-05-30T05:46:40.188Z,11.67
2023-05-30T05:51:31.824Z,11.73
2023-05-30T05:56:23.046Z,11.92
2023-05-30T06:01:15.756Z,12.01
2023-05-30T06:06:05.848Z,11.89
2023-05-30T06:10:55.883Z,12.19
2023-05-30T06:15:47.310Z,12.24
2023-05-30T06:20:42.557Z,12.28
2023-05-30T06:25:32.800Z,12.39
2023-05-30T06:30:22.884Z,12.58
2023-05-30T06:35:15.632Z,12.61
2023-05-30T06:40:09.890Z,12.74
2023-05-30T06:44:59.776Z,12.68
2023-05-30T06:49:49.952Z,12.75
2023-05-30T06:54:39.898Z,12.83
2023-05-30T06:59:34.648Z,12.77
2023-05-30T07:04:25.606Z,12.93
2023-05-30T07:09:15.866Z,13.07
2023-05-30T07:14:05.630Z,13.24
2023-05-30T07:19:11.735Z,13.40
2023-05-30T07:24:02.926Z,13.63
2023-05-30T07:28:53.326Z,13.67
2023-05-30T07:33:43.275Z,13.67
2023-05-30T07:38:37.239Z,13.68
2023-05-30T07:43:27.102Z,13.69
2023-05-30T07:48:17.228Z,13.59
2023-05-30T07:53:07.090Z,13.46
2023-05-30T07:57:59.629Z,13.51
2023-05-30T08:02:49.579Z,13.42
2023-05-30T08:07:40.123Z,13.58
2023-05-30T08:12:30.772Z,13.80
2023-05-30T08:17:25.237Z,14.22
2023-05-30T08:22:15.386Z,14.27
2023-05-30T08:27:05.385Z,14.23
2023-05-30T08:31:55.372Z,14.58
2023-05-30T08:36:48.089Z,15.00
2023-05-30T08:41:39.037Z,15.02
2023-05-30T08:46:29.831Z,15.19
2023-05-30T08:51:26.408Z,15.45
2023-05-30T08:56:31.558Z,15.56
2023-05-30T09:01:21.949Z,15.79
2023-05-30T09:06:15.513Z,15.93
2023-05-30T09:11:09.233Z,16.09
2023-05-30T09:16:01.761Z,16.15
2023-05-30T09:20:51.814Z,16.69
2023-05-30T09:25:46.468Z,16.77
2023-05-30T09:30:36.614Z,17.00
2023-05-30T09:35:33.626Z,17.35
2023-05-30T09:40:24.210Z,17.34
2023-05-30T09:45:18.013Z,17.72
2023-05-30T09:50:09.292Z,17.98
2023-05-30T09:55:06.893Z,18.19
2023-05-30T09:59:59.714Z,18.27
2023-05-30T10:04:49.813Z,18.60
2023-05-30T10:09:39.700Z,18.62
2023-05-30T10:14:32.211Z,18.52
2023-05-30T10:19:28.261Z,18.60
2023-05-30T10:24:19.949Z,18.95
2023-05-30T10:29:12.901Z,19.15
2023-05-30T10:34:06.236Z,19.29
2023-05-30T10:39:04.082Z,19.25
2023-05-30T10:44:09.889Z,19.35
2023-05-30T10:49:07.850Z,19.19
2023-05-30T10:54:01.109Z,19.26
2023-05-30T10:58:51.952Z,19.14
2023-05-30T11:03:49.373Z,18.98
2023-05-30T11:08:42.809Z,19.08
2023-05-30T11:13:33.072Z,19.11
2023-05-30T11:18:24.452Z,19.01
2023-05-30T11:23:23.246Z,18.93
2023-05-30T11:28:36.389Z,18.98
2023-05-30T11:33:28.556Z,19.19
2023-05-30T11:38:26.050Z,19.25
2023-05-30T11:43:18.300Z,19.15
2023-05-30T11:48:12.167Z,18.95
2023-05-30T11:53:02.110Z,19.01
2023-05-30T11:57:52.219Z,18.98
2023-05-30T12:02:42.531Z,19.03
2023-05-30T12:07:36.173Z,18.95
2023-05-30T12:12:26.587Z,18.95
2023-05-30T12:17:18.461Z,18.88
2023-05-30T12:22:10.577Z,18.73
2023-05-30T12:27:03.253Z,18.64
2023-05-30T12:31:53.234Z,18.53
2023-05-30T12:36:43.111Z,18.60
2023-05-30T12:41:37.808Z,18.60
2023-05-30T12:46:32.699Z,18.61
2023-05-30T12:51:22.947Z,18.57
2023-05-30T12:56:15.359Z,18.51
2023-05-30T13:01:05.223Z,18.47
2023-05-30T13:05:59.517Z,18.52
2023-05-30T13:10:49.394Z,18.39
2023-05-30T13:15:39.447Z,18.53
2023-05-30T13:20:29.342Z,18.33
2023-05-30T13:25:22.168Z,18.40
2023-05-30T13:30:13.627Z,18.39
2023-05-30T13:35:03.783Z,18.32
2023-05-30T13:39:53.700Z,18.12
2023-05-30T13:44:46.450Z,18.15
2023-05-30T13:49:39.447Z,18.10
2023-05-30T13:54:29.551Z,17.90
2023-05-30T13:59:19.456Z,18.12
2023-05-30T14:04:12.094Z,17.94
2023-05-30T14:09:06.375Z,17.87
2023-05-30T14:13:56.282Z,18.02
2023-05-30T14:18:47.147Z,17.94
2023-05-30T14:23:39.642Z,18.09
2023-05-30T14:28:29.539Z,18.15
2023-05-30T14:33:21.342Z,18.22
2023-05-30T14:38:11.536Z,18.03
2023-05-30T14:43:04.041Z,18.04
2023-05-30T14:47:56.914Z,18.16
2023-05-30T14:52:48.097Z,18.02
2023-05-30T14:57:39.961Z,18.08
2023-05-30T15:02:32.572Z,18.16
2023-05-30T15:07:22.560Z,18.03
2023-05-30T15:12:12.853Z,18.08
2023-05-30T15:17:02.755Z,17.88
2023-05-30T15:21:55.344Z,17.77
2023-05-30T15:26:45.200Z,17.74
2023-05-30T15:31:35.330Z,17.90
2023-05-30T15:36:25.391Z,17.98
2023-05-30T15:41:17.931Z,17.91
2023-05-30T15:46:08.154Z,17.94
2023-05-30T15:50:58.557Z,17.96
2023-05-30T15:55:48.893Z,17.99
2023-05-30T16:00:41.474Z,17.89
2023-05-30T16:05:31.374Z,17.69
2023-05-30T16:10:21.688Z,17.72
2023-05-30T16:15:12.575Z,17.55
2023-05-30T16:20:05.714Z,17.45
2023-05-30T16:24:55.656Z,17.45
2023-05-30T16:29:45.770Z,17.49
2023-05-30T16:34:35.635Z,17.34
2023-05-30T16:39:28.600Z,17.17
2023-05-30T16:44:19.123Z,17.20
2023-05-30T16:49:09.081Z,17.23
2023-05-30T16:53:59.583Z,17.18
2023-05-30T16:58:52.910Z,17.14
2023-05-30T17:03:43.669Z,17.23
2023-05-30T17:08:33.575Z,17.27
2023-05-30T17:13:23.814Z,17.26
2023-05-30T17:18:16.726Z,17.21
2023-05-30T17:23:06.725Z,17.09
2023-05-30T17:27:58.854Z,17.12
2023-05-30T17:32:48.991Z,17.17
2023-05-30T17:37:41.778Z,17.11
2023-05-30T17:42:32.135Z,17.12
2023-05-30T17:47:21.994Z,17.10
2023-05-30T17:52:13.085Z,17.05
2023-05-30T17:57:06.830Z,17.03
2023-05-30T18:01:56.709Z,17.02
2023-05-30T18:06:47.258Z,16.92
2023-05-30T18:11:37.273Z,16.95
2023-05-30T18:16:29.846Z,16.77
2023-05-30T18:21:19.813Z,16.82
2023-05-30T18:26:11.025Z,16.87
2023-05-30T18:31:01.254Z,16.79
2023-05-30T18:36:11.560Z,16.73
2023-05-30T18:41:03.502Z,16.56
2023-05-30T18:45:53.874Z,16.72
2023-05-30T18:50:43.912Z,16.57
2023-05-30T18:55:36.460Z,16.53
2023-05-30T19:00:26.564Z,16.44
2023-05-30T19:05:16.558Z,16.30
2023-05-30T19:10:06.834Z,16.34
2023-05-30T19:15:00.927Z,16.26
2023-05-30T19:19:55.247Z,15.83
2023-05-30T19:24:45.028Z,16.12
2023-05-30T19:29:35.037Z,16.00
2023-05-30T19:34:27.847Z,15.94
2023-05-30T19:39:20.140Z,15.78
2023-05-30T19:44:10.509Z,15.73
2023-05-30T19:49:01.185Z,15.65
2023-05-30T19:53:53.833Z,15.64
2023-05-30T19:58:43.806Z,15.40
2023-05-30T20:03:37.758Z,15.36
2023-05-30T20:08:27.596Z,15.35
2023-05-30T20:13:22.671Z,15.28
2023-05-30T20:18:14.459Z,15.26
2023-05-30T20:23:04.535Z,15.05
2023-05-30T20:27:55.059Z,14.99
2023-05-30T20:32:49.424Z,14.88
2023-05-30T20:37:40.118Z,14.98
2023-05-30T20:42:30.041Z,14.90
2023-05-30T20:47:20.211Z,14.88
2023-05-30T20:52:13.321Z,14.92
2023-05-30T20:57:03.523Z,14.80
2023-05-30T21:01:53.527Z,14.87
2023-05-30T21:06:43.513Z,14.77
2023-05-30T21:11:36.047Z,14.78
2023-05-30T21:16:26.242Z,14.66
2023-05-30T21:21:16.246Z,14.48
2023-05-30T21:26:06.418Z,14.45
2023-05-30T21:30:59.383Z,14.46
2023-05-30T21:35:49.746Z,14.57
2023-05-30T21:40:42.408Z,14.51
2023-05-30T21:45:32.752Z,14.13
2023-05-30T21:50:27.896Z,14.34
2023-05-30T21:55:17.965Z,14.03
2023-05-30T22:00:10.486Z,14.28
2023-05-30T22:05:00.883Z,14.19
2023-05-30T22:09:53.947Z,14.24
2023-05-30T22:14:44.565Z,13.89
2023-05-30T22:19:34.910Z,14.04
2023-05-30T22:24:26.152Z,14.13
2023-05-30T22:29:18.831Z,14.13
2023-05-30T22:34:10.054Z,13.83
2023-05-30T22:39:02.332Z,14.10
2023-05-30T22:43:53.662Z,14.02
2023-05-30T22:48:46.248Z,14.01
2023-05-30T22:53:37.881Z,14.01
2023-05-30T22:58:28.094Z,13.79
2023-05-30T23:03:20.897Z,13.79
2023-05-30T23:08:13.690Z,13.71
2023-05-30T23:13:03.575Z,13.85
2023-05-30T23:17:53.594Z,13.81
2023-05-30T23:22:45.313Z,13.70
2023-05-30T23:27:37.869Z,13.71
2023-05-30T23:32:28.636Z,13.70
2023-05-30T23:37:20.217Z,13.69
2023-05-30T23:42:11.684Z,13.47
2023-05-30T23:47:04.586Z,13.57
2023-05-30T23:51:58.744Z,13.49
2023-05-30T23:56:48.687Z,13.52
